sensor_id;sensor_type;location;lat;lon;timestamp;P1;P2;P0
78063;PMS5003;67429;51.596;-3.264;2023-05-10T00:01:58;10;10;
78063;PMS5003;67429;51.596;-3.264;2023-05-10T00:04:23;12;11;
78063;PMS5003;67429;51.596;-3.264;2023-05-10T00:06:48;14;14;
78063;PMS5003;67429;51.596;-3.264;2023-05-10T00:09:14;15;14;
78063;PMS5003;67429;51.596;-3.264;2023-05-10T00:11:39;13;11;
78063;PMS5003;67429;51.596;-3.264;2023-05-10T00:14:05;13;11;
78063;PMS5003;67429;51.596;-3.264;2023-05-10T00:16:31;11;11;
78063;PMS5003;67429;51.596;-3.264;2023-05-10T00:18:56;12;12;
78063;PMS5003;67429;51.596;-3.264;2023-05-10T00:21:22;10;10;
78063;PMS5003;67429;51.596;-3.264;2023-05-10T00:23:47;10;10;
78063;PMS5003;67429;51.596;-3.264;2023-05-10T00:26:13;12;10;
78063;PMS5003;67429;51.596;-3.264;2023-05-10T00:28:39;10;9;
78063;PMS5003;67429;51.596;-3.264;2023-05-10T00:31:05;13;12;
78063;PMS5003;67429;51.596;-3.264;2023-05-10T00:33:30;12;12;
78063;PMS5003;67429;51.596;-3.264;2023-05-10T00:35:55;12;11;
78063;PMS5003;67429;51.596;-3.264;2023-05-10T00:38:21;9;9;
78063;PMS5003;67429;51.596;-3.264;2023-05-10T00:40:47;13;11;
78063;PMS5003;67429;51.596;-3.264;2023-05-10T00:43:12;13;12;
78063;PMS5003;67429;51.596;-3.264;2023-05-10T00:45:38;13;10;
78063;PMS5003;67429;51.596;-3.264;2023-05-10T00:48:03;10;9;
78063;PMS5003;67429;51.596;-3.264;2023-05-10T00:50:29;10;8;
78063;PMS5003;67429;51.596;-3.264;2023-05-10T00:52:54;12;12;
78063;PMS5003;67429;51.596;-3.264;2023-05-10T00:55:20;11;11;
78063;PMS5003;67429;51.596;-3.264;2023-05-10T00:57:46;11;10;
78063;PMS5003;67429;51.596;-3.264;2023-05-10T01:00:12;11;10;
78063;PMS5003;67429;51.596;-3.264;2023-05-10T01:02:37;10;10;
78063;PMS5003;67429;51.596;-3.264;2023-05-10T01:05:02;13;12;
78063;PMS5003;67429;51.596;-3.264;2023-05-10T01:07:27;11;9;
78063;PMS5003;67429;51.596;-3.264;2023-05-10T01:09:53;10;8;
78063;PMS5003;67429;51.596;-3.264;2023-05-10T01:12:18;10;9;
78063;PMS5003;67429;51.596;-3.264;2023-05-10T01:14:44;16;13;
78063;PMS5003;67429;51.596;-3.264;2023-05-10T01:17:09;11;10;
78063;PMS5003;67429;51.596;-3.264;2023-05-10T01:19:35;13;13;
78063;PMS5003;67429;51.596;-3.264;2023-05-10T01:22:04;12;10;
78063;PMS5003;67429;51.596;-3.264;2023-05-10T01:24:33;10;10;
78063;PMS5003;67429;51.596;-3.264;2023-05-10T01:29:19;12;12;
78063;PMS5003;67429;51.596;-3.264;2023-05-10T01:34:09;9;9;
78063;PMS5003;67429;51.596;-3.264;2023-05-10T01:36:35;14;12;
78063;PMS5003;67429;51.596;-3.264;2023-05-10T01:39:01;9;9;
78063;PMS5003;67429;51.596;-3.264;2023-05-10T01:41:25;11;10;
78063;PMS5003;67429;51.596;-3.264;2023-05-10T01:43:52;16;12;
78063;PMS5003;67429;51.596;-3.264;2023-05-10T01:46:16;19;17;
78063;PMS5003;67429;51.596;-3.264;2023-05-10T01:48:42;23;21;
78063;PMS5003;67429;51.596;-3.264;2023-05-10T01:51:06;18;17;
78063;PMS5003;67429;51.596;-3.264;2023-05-10T01:53:31;18;18;
78063;PMS5003;67429;51.596;-3.264;2023-05-10T01:55:57;12;12;
78063;PMS5003;67429;51.596;-3.264;2023-05-10T01:58:24;19;18;
78063;PMS5003;67429;51.596;-3.264;2023-05-10T02:00:49;21;19;
78063;PMS5003;67429;51.596;-3.264;2023-05-10T02:03:14;20;18;
78063;PMS5003;67429;51.596;-3.264;2023-05-10T02:05:39;24;21;
78063;PMS5003;67429;51.596;-3.264;2023-05-10T02:08:05;21;18;
78063;PMS5003;67429;51.596;-3.264;2023-05-10T02:10:30;11;11;
78063;PMS5003;67429;51.596;-3.264;2023-05-10T02:12:56;14;11;
78063;PMS5003;67429;51.596;-3.264;2023-05-10T02:15:22;10;9;
78063;PMS5003;67429;51.596;-3.264;2023-05-10T02:17:47;13;12;
78063;PMS5003;67429;51.596;-3.264;2023-05-10T02:20:13;13;13;
78063;PMS5003;67429;51.596;-3.264;2023-05-10T02:22:38;9;9;
78063;PMS5003;67429;51.596;-3.264;2023-05-10T02:25:04;11;10;
78063;PMS5003;67429;51.596;-3.264;2023-05-10T02:27:30;10;10;
78063;PMS5003;67429;51.596;-3.264;2023-05-10T02:29:55;14;12;
78063;PMS5003;67429;51.596;-3.264;2023-05-10T02:32:21;11;10;
78063;PMS5003;67429;51.596;-3.264;2023-05-10T02:34:46;12;11;
78063;PMS5003;67429;51.596;-3.264;2023-05-10T02:37:11;17;14;
78063;PMS5003;67429;51.596;-3.264;2023-05-10T02:39:37;10;10;
78063;PMS5003;67429;51.596;-3.264;2023-05-10T02:42:02;18;15;
78063;PMS5003;67429;51.596;-3.264;2023-05-10T02:44:27;12;10;
78063;PMS5003;67429;51.596;-3.264;2023-05-10T02:46:53;12;11;
78063;PMS5003;67429;51.596;-3.264;2023-05-10T02:49:18;13;11;
78063;PMS5003;67429;51.596;-3.264;2023-05-10T02:51:46;19;18;
78063;PMS5003;67429;51.596;-3.264;2023-05-10T02:54:10;18;17;
78063;PMS5003;67429;51.596;-3.264;2023-05-10T02:56:35;17;14;
78063;PMS5003;67429;51.596;-3.264;2023-05-10T02:58:59;14;14;
78063;PMS5003;67429;51.596;-3.264;2023-05-10T03:01:25;13;12;
78063;PMS5003;67429;51.596;-3.264;2023-05-10T03:03:51;11;11;
78063;PMS5003;67429;51.596;-3.264;2023-05-10T03:06:16;9;9;
78063;PMS5003;67429;51.596;-3.264;2023-05-10T03:08:42;16;14;
78063;PMS5003;67429;51.596;-3.264;2023-05-10T03:11:12;10;10;
78063;PMS5003;67429;51.596;-3.264;2023-05-10T03:13:35;12;12;
78063;PMS5003;67429;51.596;-3.264;2023-05-10T03:15:59;12;12;
78063;PMS5003;67429;51.596;-3.264;2023-05-10T03:18:28;17;16;
78063;PMS5003;67429;51.596;-3.264;2023-05-10T03:20:50;11;11;
78063;PMS5003;67429;51.596;-3.264;2023-05-10T03:23:19;17;14;
78063;PMS5003;67429;51.596;-3.264;2023-05-10T03:25:40;11;11;
78063;PMS5003;67429;51.596;-3.264;2023-05-10T03:28:06;19;13;
78063;PMS5003;67429;51.596;-3.264;2023-05-10T03:30:31;12;12;
78063;PMS5003;67429;51.596;-3.264;2023-05-10T03:32:57;10;9;
78063;PMS5003;67429;51.596;-3.264;2023-05-10T03:35:22;11;11;
78063;PMS5003;67429;51.596;-3.264;2023-05-10T03:37:48;13;13;
78063;PMS5003;67429;51.596;-3.264;2023-05-10T03:40:14;14;14;
78063;PMS5003;67429;51.596;-3.264;2023-05-10T03:42:39;11;11;
78063;PMS5003;67429;51.596;-3.264;2023-05-10T03:45:06;14;14;
78063;PMS5003;67429;51.596;-3.264;2023-05-10T03:47:30;18;16;
78063;PMS5003;67429;51.596;-3.264;2023-05-10T03:49:56;18;17;
78063;PMS5003;67429;51.596;-3.264;2023-05-10T03:52:21;16;12;
78063;PMS5003;67429;51.596;-3.264;2023-05-10T03:54:47;13;12;
78063;PMS5003;67429;51.596;-3.264;2023-05-10T03:57:17;12;11;
78063;PMS5003;67429;51.596;-3.264;2023-05-10T03:59:38;10;9;
78063;PMS5003;67429;51.596;-3.264;2023-05-10T04:02:04;10;10;
78063;PMS5003;67429;51.596;-3.264;2023-05-10T04:04:29;6;6;
78063;PMS5003;67429;51.596;-3.264;2023-05-10T04:06:55;13;10;
78063;PMS5003;67429;51.596;-3.264;2023-05-10T04:09:20;13;11;
78063;PMS5003;67429;51.596;-3.264;2023-05-10T04:11:45;10;10;
78063;PMS5003;67429;51.596;-3.264;2023-05-10T04:14:11;7;7;
78063;PMS5003;67429;51.596;-3.264;2023-05-10T04:16:37;9;9;
78063;PMS5003;67429;51.596;-3.264;2023-05-10T04:19:02;13;12;
78063;PMS5003;67429;51.596;-3.264;2023-05-10T04:21:28;11;10;
78063;PMS5003;67429;51.596;-3.264;2023-05-10T04:23:54;12;9;
78063;PMS5003;67429;51.596;-3.264;2023-05-10T04:26:19;11;9;
78063;PMS5003;67429;51.596;-3.264;2023-05-10T04:28:45;10;10;
78063;PMS5003;67429;51.596;-3.264;2023-05-10T04:31:11;12;11;
78063;PMS5003;67429;51.596;-3.264;2023-05-10T04:33:36;9;9;
78063;PMS5003;67429;51.596;-3.264;2023-05-10T04:36:02;8;8;
78063;PMS5003;67429;51.596;-3.264;2023-05-10T04:38:28;8;7;
78063;PMS5003;67429;51.596;-3.264;2023-05-10T04:40:53;7;7;
78063;PMS5003;67429;51.596;-3.264;2023-05-10T04:43:19;8;8;
78063;PMS5003;67429;51.596;-3.264;2023-05-10T04:45:45;6;6;
78063;PMS5003;67429;51.596;-3.264;2023-05-10T04:48:10;12;11;
78063;PMS5003;67429;51.596;-3.264;2023-05-10T04:50:35;11;11;
78063;PMS5003;67429;51.596;-3.264;2023-05-10T04:53:01;6;6;
78063;PMS5003;67429;51.596;-3.264;2023-05-10T04:55:26;9;8;
78063;PMS5003;67429;51.596;-3.264;2023-05-10T04:57:52;8;7;
78063;PMS5003;67429;51.596;-3.264;2023-05-10T05:00:17;13;11;
78063;PMS5003;67429;51.596;-3.264;2023-05-10T05:02:44;7;7;
78063;PMS5003;67429;51.596;-3.264;2023-05-10T05:05:08;9;8;
78063;PMS5003;67429;51.596;-3.264;2023-05-10T05:07:33;8;8;
78063;PMS5003;67429;51.596;-3.264;2023-05-10T05:09:58;9;9;
78063;PMS5003;67429;51.596;-3.264;2023-05-10T05:12:24;11;11;
78063;PMS5003;67429;51.596;-3.264;2023-05-10T05:14:50;8;7;
78063;PMS5003;67429;51.596;-3.264;2023-05-10T05:17:15;6;6;
78063;PMS5003;67429;51.596;-3.264;2023-05-10T05:19:41;12;11;
78063;PMS5003;67429;51.596;-3.264;2023-05-10T05:22:06;12;9;
78063;PMS5003;67429;51.596;-3.264;2023-05-10T05:24:34;8;7;
78063;PMS5003;67429;51.596;-3.264;2023-05-10T05:26:57;9;8;
78063;PMS5003;67429;51.596;-3.264;2023-05-10T05:29:23;7;7;
78063;PMS5003;67429;51.596;-3.264;2023-05-10T05:31:48;11;9;
78063;PMS5003;67429;51.596;-3.264;2023-05-10T05:34:14;8;8;
78063;PMS5003;67429;51.596;-3.264;2023-05-10T05:36:39;8;8;
78063;PMS5003;67429;51.596;-3.264;2023-05-10T05:39:05;9;8;
78063;PMS5003;67429;51.596;-3.264;2023-05-10T05:41:30;8;8;
78063;PMS5003;67429;51.596;-3.264;2023-05-10T05:43:56;7;7;
78063;PMS5003;67429;51.596;-3.264;2023-05-10T05:46:21;7;7;
78063;PMS5003;67429;51.596;-3.264;2023-05-10T05:48:46;7;7;
78063;PMS5003;67429;51.596;-3.264;2023-05-10T05:51:11;10;9;
78063;PMS5003;67429;51.596;-3.264;2023-05-10T05:53:37;11;11;
78063;PMS5003;67429;51.596;-3.264;2023-05-10T05:56:02;9;9;
78063;PMS5003;67429;51.596;-3.264;2023-05-10T05:58:28;7;7;
78063;PMS5003;67429;51.596;-3.264;2023-05-10T06:00:54;10;9;
78063;PMS5003;67429;51.596;-3.264;2023-05-10T06:03:19;10;10;
78063;PMS5003;67429;51.596;-3.264;2023-05-10T06:05:45;6;6;
78063;PMS5003;67429;51.596;-3.264;2023-05-10T06:08:11;9;8;
78063;PMS5003;67429;51.596;-3.264;2023-05-10T06:10:36;8;7;
78063;PMS5003;67429;51.596;-3.264;2023-05-10T06:13:01;10;9;
78063;PMS5003;67429;51.596;-3.264;2023-05-10T06:15:27;10;9;
78063;PMS5003;67429;51.596;-3.264;2023-05-10T06:17:52;7;7;
78063;PMS5003;67429;51.596;-3.264;2023-05-10T06:20:18;7;7;
78063;PMS5003;67429;51.596;-3.264;2023-05-10T06:22:49;8;8;
78063;PMS5003;67429;51.596;-3.264;2023-05-10T06:25:09;7;7;
78063;PMS5003;67429;51.596;-3.264;2023-05-10T06:27:35;7;7;
78063;PMS5003;67429;51.596;-3.264;2023-05-10T06:30:00;9;8;
78063;PMS5003;67429;51.596;-3.264;2023-05-10T06:32:31;12;11;
78063;PMS5003;67429;51.596;-3.264;2023-05-10T06:34:51;9;7;
78063;PMS5003;67429;51.596;-3.264;2023-05-10T06:37:17;8;8;
78063;PMS5003;67429;51.596;-3.264;2023-05-10T06:39:42;7;7;
78063;PMS5003;67429;51.596;-3.264;2023-05-10T06:42:08;7;7;
78063;PMS5003;67429;51.596;-3.264;2023-05-10T06:44:34;11;11;
78063;PMS5003;67429;51.596;-3.264;2023-05-10T06:46:59;10;8;
78063;PMS5003;67429;51.596;-3.264;2023-05-10T06:49:25;5;5;
78063;PMS5003;67429;51.596;-3.264;2023-05-10T06:51:50;8;7;
78063;PMS5003;67429;51.596;-3.264;2023-05-10T06:54:16;8;8;
78063;PMS5003;67429;51.596;-3.264;2023-05-10T06:56:42;8;8;
78063;PMS5003;67429;51.596;-3.264;2023-05-10T06:59:07;7;7;
78063;PMS5003;67429;51.596;-3.264;2023-05-10T07:01:32;6;6;
78063;PMS5003;67429;51.596;-3.264;2023-05-10T07:03:58;7;6;
78063;PMS5003;67429;51.596;-3.264;2023-05-10T07:06:23;8;6;
78063;PMS5003;67429;51.596;-3.264;2023-05-10T07:08:49;6;6;
78063;PMS5003;67429;51.596;-3.264;2023-05-10T07:11:14;7;6;
78063;PMS5003;67429;51.596;-3.264;2023-05-10T07:13:39;5;5;
78063;PMS5003;67429;51.596;-3.264;2023-05-10T07:16:05;8;7;
78063;PMS5003;67429;51.596;-3.264;2023-05-10T07:18:31;8;7;
78063;PMS5003;67429;51.596;-3.264;2023-05-10T07:20:56;11;10;
78063;PMS5003;67429;51.596;-3.264;2023-05-10T07:23:22;7;6;
78063;PMS5003;67429;51.596;-3.264;2023-05-10T07:25:48;8;7;
78063;PMS5003;67429;51.596;-3.264;2023-05-10T07:28:13;7;7;
78063;PMS5003;67429;51.596;-3.264;2023-05-10T07:30:38;7;7;
78063;PMS5003;67429;51.596;-3.264;2023-05-10T07:33:04;9;7;
78063;PMS5003;67429;51.596;-3.264;2023-05-10T07:35:29;5;5;
78063;PMS5003;67429;51.596;-3.264;2023-05-10T07:37:55;7;7;
78063;PMS5003;67429;51.596;-3.264;2023-05-10T07:40:21;7;7;
78063;PMS5003;67429;51.596;-3.264;2023-05-10T07:42:46;9;7;
78063;PMS5003;67429;51.596;-3.264;2023-05-10T07:45:12;8;6;
78063;PMS5003;67429;51.596;-3.264;2023-05-10T07:47:37;5;5;
78063;PMS5003;67429;51.596;-3.264;2023-05-10T07:50:03;6;6;
78063;PMS5003;67429;51.596;-3.264;2023-05-10T07:52:28;6;6;
78063;PMS5003;67429;51.596;-3.264;2023-05-10T07:54:54;5;4;
78063;PMS5003;67429;51.596;-3.264;2023-05-10T07:57:19;5;4;
78063;PMS5003;67429;51.596;-3.264;2023-05-10T07:59:45;5;5;
78063;PMS5003;67429;51.596;-3.264;2023-05-10T08:02:10;4;4;
78063;PMS5003;67429;51.596;-3.264;2023-05-10T08:04:36;3;3;
78063;PMS5003;67429;51.596;-3.264;2023-05-10T08:07:01;3;3;
78063;PMS5003;67429;51.596;-3.264;2023-05-10T08:09:27;5;4;
78063;PMS5003;67429;51.596;-3.264;2023-05-10T08:11:52;3;3;
78063;PMS5003;67429;51.596;-3.264;2023-05-10T08:14:18;5;4;
78063;PMS5003;67429;51.596;-3.264;2023-05-10T08:16:44;5;5;
78063;PMS5003;67429;51.596;-3.264;2023-05-10T08:19:09;4;4;
78063;PMS5003;67429;51.596;-3.264;2023-05-10T08:21:34;4;4;
78063;PMS5003;67429;51.596;-3.264;2023-05-10T08:24:00;8;6;
78063;PMS5003;67429;51.596;-3.264;2023-05-10T08:26:25;6;5;
78063;PMS5003;67429;51.596;-3.264;2023-05-10T08:28:51;5;5;
78063;PMS5003;67429;51.596;-3.264;2023-05-10T08:31:17;7;6;
78063;PMS5003;67429;51.596;-3.264;2023-05-10T08:33:42;4;4;
78063;PMS5003;67429;51.596;-3.264;2023-05-10T08:36:08;5;4;
78063;PMS5003;67429;51.596;-3.264;2023-05-10T08:38:33;4;4;
78063;PMS5003;67429;51.596;-3.264;2023-05-10T08:40:59;5;5;
78063;PMS5003;67429;51.596;-3.264;2023-05-10T08:43:26;5;5;
78063;PMS5003;67429;51.596;-3.264;2023-05-10T08:45:50;3;3;
78063;PMS5003;67429;51.596;-3.264;2023-05-10T08:48:15;4;4;
78063;PMS5003;67429;51.596;-3.264;2023-05-10T08:50:41;4;4;
78063;PMS5003;67429;51.596;-3.264;2023-05-10T08:53:09;4;4;
78063;PMS5003;67429;51.596;-3.264;2023-05-10T08:55:32;3;2;
78063;PMS5003;67429;51.596;-3.264;2023-05-10T08:57:57;3;3;
78063;PMS5003;67429;51.596;-3.264;2023-05-10T09:00:23;6;5;
78063;PMS5003;67429;51.596;-3.264;2023-05-10T09:02:48;7;6;
78063;PMS5003;67429;51.596;-3.264;2023-05-10T09:05:14;7;7;
78063;PMS5003;67429;51.596;-3.264;2023-05-10T09:07:40;9;9;
78063;PMS5003;67429;51.596;-3.264;2023-05-10T09:10:05;10;10;
78063;PMS5003;67429;51.596;-3.264;2023-05-10T09:12:30;12;12;
78063;PMS5003;67429;51.596;-3.264;2023-05-10T09:14:56;9;8;
78063;PMS5003;67429;51.596;-3.264;2023-05-10T09:17:22;11;10;
78063;PMS5003;67429;51.596;-3.264;2023-05-10T09:19:47;11;9;
78063;PMS5003;67429;51.596;-3.264;2023-05-10T09:22:13;10;10;
78063;PMS5003;67429;51.596;-3.264;2023-05-10T09:24:39;14;13;
78063;PMS5003;67429;51.596;-3.264;2023-05-10T09:27:04;10;10;
78063;PMS5003;67429;51.596;-3.264;2023-05-10T09:31:55;12;11;
78063;PMS5003;67429;51.596;-3.264;2023-05-10T09:34:30;13;13;
78063;PMS5003;67429;51.596;-3.264;2023-05-10T09:39:11;12;12;
78063;PMS5003;67429;51.596;-3.264;2023-05-10T09:41:37;10;10;
78063;PMS5003;67429;51.596;-3.264;2023-05-10T09:44:02;10;9;
78063;PMS5003;67429;51.596;-3.264;2023-05-10T09:46:28;6;6;
78063;PMS5003;67429;51.596;-3.264;2023-05-10T09:48:53;7;6;
78063;PMS5003;67429;51.596;-3.264;2023-05-10T09:51:19;12;11;
78063;PMS5003;67429;51.596;-3.264;2023-05-10T09:53:44;11;11;
78063;PMS5003;67429;51.596;-3.264;2023-05-10T09:56:10;13;13;
78063;PMS5003;67429;51.596;-3.264;2023-05-10T09:58:36;15;15;
78063;PMS5003;67429;51.596;-3.264;2023-05-10T10:01:01;14;13;
78063;PMS5003;67429;51.596;-3.264;2023-05-10T10:03:27;15;13;
78063;PMS5003;67429;51.596;-3.264;2023-05-10T10:05:52;15;14;
78063;PMS5003;67429;51.596;-3.264;2023-05-10T10:08:17;17;16;
78063;PMS5003;67429;51.596;-3.264;2023-05-10T10:10:43;11;11;
78063;PMS5003;67429;51.596;-3.264;2023-05-10T10:13:08;12;12;
78063;PMS5003;67429;51.596;-3.264;2023-05-10T10:15:34;13;13;
78063;PMS5003;67429;51.596;-3.264;2023-05-10T10:18:00;10;10;
78063;PMS5003;67429;51.596;-3.264;2023-05-10T10:20:25;11;10;
78063;PMS5003;67429;51.596;-3.264;2023-05-10T10:22:50;14;13;
78063;PMS5003;67429;51.596;-3.264;2023-05-10T10:25:16;15;14;
78063;PMS5003;67429;51.596;-3.264;2023-05-10T10:27:43;20;17;
78063;PMS5003;67429;51.596;-3.264;2023-05-10T10:30:10;19;19;
78063;PMS5003;67429;51.596;-3.264;2023-05-10T10:32:35;23;20;
78063;PMS5003;67429;51.596;-3.264;2023-05-10T10:34:58;20;20;
78063;PMS5003;67429;51.596;-3.264;2023-05-10T10:37:23;24;23;
78063;PMS5003;67429;51.596;-3.264;2023-05-10T10:39:49;21;21;
78063;PMS5003;67429;51.596;-3.264;2023-05-10T10:42:14;19;19;
78063;PMS5003;67429;51.596;-3.264;2023-05-10T10:44:40;27;25;
78063;PMS5003;67429;51.596;-3.264;2023-05-10T10:47:06;18;15;
78063;PMS5003;67429;51.596;-3.264;2023-05-10T10:49:31;24;22;
78063;PMS5003;67429;51.596;-3.264;2023-05-10T10:56:51;20;20;
78063;PMS5003;67429;51.596;-3.264;2023-05-10T10:59:12;16;16;
78063;PMS5003;67429;51.596;-3.264;2023-05-10T11:01:37;16;14;
78063;PMS5003;67429;51.596;-3.264;2023-05-10T11:06:29;10;9;
78063;PMS5003;67429;51.596;-3.264;2023-05-10T11:08:54;10;9;
78063;PMS5003;67429;51.596;-3.264;2023-05-10T11:11:20;8;8;
78063;PMS5003;67429;51.596;-3.264;2023-05-10T11:13:45;8;7;
78063;PMS5003;67429;51.596;-3.264;2023-05-10T11:16:12;10;10;
78063;PMS5003;67429;51.596;-3.264;2023-05-10T11:18:36;12;11;
78063;PMS5003;67429;51.596;-3.264;2023-05-10T11:21:02;15;14;
78063;PMS5003;67429;51.596;-3.264;2023-05-10T11:23:29;16;15;
78063;PMS5003;67429;51.596;-3.264;2023-05-10T11:25:52;11;10;
78063;PMS5003;67429;51.596;-3.264;2023-05-10T11:28:17;12;11;
78063;PMS5003;67429;51.596;-3.264;2023-05-10T11:30:43;14;13;
78063;PMS5003;67429;51.596;-3.264;2023-05-10T11:33:09;15;15;
78063;PMS5003;67429;51.596;-3.264;2023-05-10T11:35:38;17;17;
78063;PMS5003;67429;51.596;-3.264;2023-05-10T11:38:00;17;16;
78063;PMS5003;67429;51.596;-3.264;2023-05-10T11:40:25;18;17;
78063;PMS5003;67429;51.596;-3.264;2023-05-10T11:42:50;18;18;
78063;PMS5003;67429;51.596;-3.264;2023-05-10T11:45:16;17;17;
78063;PMS5003;67429;51.596;-3.264;2023-05-10T11:47:41;18;18;
78063;PMS5003;67429;51.596;-3.264;2023-05-10T11:50:07;18;16;
78063;PMS5003;67429;51.596;-3.264;2023-05-10T11:52:35;14;14;
78063;PMS5003;67429;51.596;-3.264;2023-05-10T11:54:58;18;16;
78063;PMS5003;67429;51.596;-3.264;2023-05-10T11:57:25;13;11;
78063;PMS5003;67429;51.596;-3.264;2023-05-10T11:59:52;13;12;
78063;PMS5003;67429;51.596;-3.264;2023-05-10T12:02:14;12;12;
78063;PMS5003;67429;51.596;-3.264;2023-05-10T12:04:40;8;8;
78063;PMS5003;67429;51.596;-3.264;2023-05-10T12:07:05;10;10;
78063;PMS5003;67429;51.596;-3.264;2023-05-10T12:09:31;10;10;
78063;PMS5003;67429;51.596;-3.264;2023-05-10T12:11:56;9;9;
78063;PMS5003;67429;51.596;-3.264;2023-05-10T12:14:22;8;8;
78063;PMS5003;67429;51.596;-3.264;2023-05-10T12:16:47;6;6;
78063;PMS5003;67429;51.596;-3.264;2023-05-10T12:19:13;6;6;
78063;PMS5003;67429;51.596;-3.264;2023-05-10T12:21:38;8;8;
78063;PMS5003;67429;51.596;-3.264;2023-05-10T12:24:04;8;8;
78063;PMS5003;67429;51.596;-3.264;2023-05-10T12:26:30;10;10;
78063;PMS5003;67429;51.596;-3.264;2023-05-10T12:29:00;6;6;
78063;PMS5003;67429;51.596;-3.264;2023-05-10T12:31:21;5;3;
78063;PMS5003;67429;51.596;-3.264;2023-05-10T12:33:46;5;5;
78063;PMS5003;67429;51.596;-3.264;2023-05-10T12:36:12;8;7;
78063;PMS5003;67429;51.596;-3.264;2023-05-10T12:38:37;10;9;
78063;PMS5003;67429;51.596;-3.264;2023-05-10T12:41:03;7;7;
78063;PMS5003;67429;51.596;-3.264;2023-05-10T12:43:28;6;6;
78063;PMS5003;67429;51.596;-3.264;2023-05-10T12:45:54;11;10;
78063;PMS5003;67429;51.596;-3.264;2023-05-10T12:48:19;7;6;
78063;PMS5003;67429;51.596;-3.264;2023-05-10T12:50:45;5;5;
78063;PMS5003;67429;51.596;-3.264;2023-05-10T12:53:10;6;5;
78063;PMS5003;67429;51.596;-3.264;2023-05-10T12:55:36;6;5;
78063;PMS5003;67429;51.596;-3.264;2023-05-10T12:58:02;7;6;
78063;PMS5003;67429;51.596;-3.264;2023-05-10T13:00:27;9;9;
78063;PMS5003;67429;51.596;-3.264;2023-05-10T13:02:52;5;5;
78063;PMS5003;67429;51.596;-3.264;2023-05-10T13:05:18;5;5;
78063;PMS5003;67429;51.596;-3.264;2023-05-10T13:07:44;6;6;
78063;PMS5003;67429;51.596;-3.264;2023-05-10T13:10:09;3;3;
78063;PMS5003;67429;51.596;-3.264;2023-05-10T13:12:35;5;5;
78063;PMS5003;67429;51.596;-3.264;2023-05-10T13:15:00;8;8;
78063;PMS5003;67429;51.596;-3.264;2023-05-10T13:17:26;6;6;
78063;PMS5003;67429;51.596;-3.264;2023-05-10T13:19:51;3;3;
78063;PMS5003;67429;51.596;-3.264;2023-05-10T13:22:17;6;6;
78063;PMS5003;67429;51.596;-3.264;2023-05-10T13:24:42;5;5;
78063;PMS5003;67429;51.596;-3.264;2023-05-10T13:27:07;7;6;
78063;PMS5003;67429;51.596;-3.264;2023-05-10T13:29:33;6;5;
78063;PMS5003;67429;51.596;-3.264;2023-05-10T13:31:58;8;8;
78063;PMS5003;67429;51.596;-3.264;2023-05-10T13:34:24;4;4;
78063;PMS5003;67429;51.596;-3.264;2023-05-10T13:36:49;5;5;
78063;PMS5003;67429;51.596;-3.264;2023-05-10T13:39:15;4;3;
78063;PMS5003;67429;51.596;-3.264;2023-05-10T13:41:40;2;2;
78063;PMS5003;67429;51.596;-3.264;2023-05-10T13:44:06;4;4;
78063;PMS5003;67429;51.596;-3.264;2023-05-10T13:46:31;3;3;
78063;PMS5003;67429;51.596;-3.264;2023-05-10T13:48:56;3;3;
78063;PMS5003;67429;51.596;-3.264;2023-05-10T13:51:22;3;3;
78063;PMS5003;67429;51.596;-3.264;2023-05-10T13:53:47;5;4;
78063;PMS5003;67429;51.596;-3.264;2023-05-10T13:56:13;3;3;
78063;PMS5003;67429;51.596;-3.264;2023-05-10T13:58:38;5;4;
78063;PMS5003;67429;51.596;-3.264;2023-05-10T14:01:04;5;5;
78063;PMS5003;67429;51.596;-3.264;2023-05-10T14:03:29;5;4;
78063;PMS5003;67429;51.596;-3.264;2023-05-10T14:05:55;3;2;
78063;PMS5003;67429;51.596;-3.264;2023-05-10T14:08:20;2;2;
78063;PMS5003;67429;51.596;-3.264;2023-05-10T14:10:46;2;2;
78063;PMS5003;67429;51.596;-3.264;2023-05-10T14:13:11;3;2;
78063;PMS5003;67429;51.596;-3.264;2023-05-10T14:15:37;1;1;
78063;PMS5003;67429;51.596;-3.264;2023-05-10T14:18:02;3;3;
78063;PMS5003;67429;51.596;-3.264;2023-05-10T14:20:28;1;1;
78063;PMS5003;67429;51.596;-3.264;2023-05-10T14:22:53;3;2;
78063;PMS5003;67429;51.596;-3.264;2023-05-10T14:25:18;1;1;
78063;PMS5003;67429;51.596;-3.264;2023-05-10T14:27:44;2;2;
78063;PMS5003;67429;51.596;-3.264;2023-05-10T14:30:10;1;1;
78063;PMS5003;67429;51.596;-3.264;2023-05-10T14:32:35;4;3;
78063;PMS5003;67429;51.596;-3.264;2023-05-10T14:35:00;5;3;
78063;PMS5003;67429;51.596;-3.264;2023-05-10T14:37:26;3;3;
78063;PMS5003;67429;51.596;-3.264;2023-05-10T14:39:51;3;3;
78063;PMS5003;67429;51.596;-3.264;2023-05-10T14:42:17;4;3;
78063;PMS5003;67429;51.596;-3.264;2023-05-10T14:44:42;4;4;
78063;PMS5003;67429;51.596;-3.264;2023-05-10T14:47:08;3;3;
78063;PMS5003;67429;51.596;-3.264;2023-05-10T14:49:33;3;3;
78063;PMS5003;67429;51.596;-3.264;2023-05-10T14:51:59;3;3;
78063;PMS5003;67429;51.596;-3.264;2023-05-10T14:54:24;5;4;
78063;PMS5003;67429;51.596;-3.264;2023-05-10T14:56:50;1;1;
78063;PMS5003;67429;51.596;-3.264;2023-05-10T14:59:15;2;1;
78063;PMS5003;67429;51.596;-3.264;2023-05-10T15:01:40;1;0;
78063;PMS5003;67429;51.596;-3.264;2023-05-10T15:04:06;1;1;
78063;PMS5003;67429;51.596;-3.264;2023-05-10T15:06:32;0;0;
78063;PMS5003;67429;51.596;-3.264;2023-05-10T15:08:57;2;2;
78063;PMS5003;67429;51.596;-3.264;2023-05-10T15:11:23;2;2;
78063;PMS5003;67429;51.596;-3.264;2023-05-10T15:13:48;1;1;
78063;PMS5003;67429;51.596;-3.264;2023-05-10T15:16:13;1;1;
78063;PMS5003;67429;51.596;-3.264;2023-05-10T15:18:39;2;2;
78063;PMS5003;67429;51.596;-3.264;2023-05-10T15:21:05;3;3;
78063;PMS5003;67429;51.596;-3.264;2023-05-10T15:23:30;2;2;
78063;PMS5003;67429;51.596;-3.264;2023-05-10T15:25:55;1;1;
78063;PMS5003;67429;51.596;-3.264;2023-05-10T15:28:21;2;2;
78063;PMS5003;67429;51.596;-3.264;2023-05-10T15:30:47;3;2;
78063;PMS5003;67429;51.596;-3.264;2023-05-10T15:33:12;2;2;
78063;PMS5003;67429;51.596;-3.264;2023-05-10T15:35:38;2;2;
78063;PMS5003;67429;51.596;-3.264;2023-05-10T15:38:03;2;2;
78063;PMS5003;67429;51.596;-3.264;2023-05-10T15:40:29;2;2;
78063;PMS5003;67429;51.596;-3.264;2023-05-10T15:42:54;1;1;
78063;PMS5003;67429;51.596;-3.264;2023-05-10T15:45:19;4;3;
78063;PMS5003;67429;51.596;-3.264;2023-05-10T15:47:45;2;2;
78063;PMS5003;67429;51.596;-3.264;2023-05-10T15:50:10;4;4;
78063;PMS5003;67429;51.596;-3.264;2023-05-10T15:52:36;6;5;
78063;PMS5003;67429;51.596;-3.264;2023-05-10T15:55:02;9;9;
78063;PMS5003;67429;51.596;-3.264;2023-05-10T15:57:27;5;5;
78063;PMS5003;67429;51.596;-3.264;2023-05-10T15:59:53;5;5;
78063;PMS5003;67429;51.596;-3.264;2023-05-10T16:02:18;5;4;
78063;PMS5003;67429;51.596;-3.264;2023-05-10T16:04:44;2;2;
78063;PMS5003;67429;51.596;-3.264;2023-05-10T16:07:09;2;2;
78063;PMS5003;67429;51.596;-3.264;2023-05-10T16:09:35;0;0;
78063;PMS5003;67429;51.596;-3.264;2023-05-10T16:12:00;1;1;
78063;PMS5003;67429;51.596;-3.264;2023-05-10T16:14:26;1;1;
78063;PMS5003;67429;51.596;-3.264;2023-05-10T16:16:51;1;1;
78063;PMS5003;67429;51.596;-3.264;2023-05-10T16:19:17;0;0;
78063;PMS5003;67429;51.596;-3.264;2023-05-10T16:21:42;2;2;
78063;PMS5003;67429;51.596;-3.264;2023-05-10T16:24:08;1;1;